Dousman, WI (53118)

7:23 AM CST on December 04, 2016 (GMT -0600)
Scuppernong Heights | | Change Station
Active Advisory: Winter Weather Advisory

Elev 886 ft 43.00 °N, 88.46 °W | Updated 29 seconds ago

Overcast
Overcast
30.7 °F
Feels Like 31 °F
N
0.0
Wind Variable Wind from ESE

Today
High -- | Low -- °F
--% Chance of Precip.
Yesterday
High -- | Low -- °F
Precip. -- in
Pressure 30.18 in
Visibility 10.0 miles
Clouds Overcast 9500 ft
Windchill 31 °F
Dew Point 26 °F
Humidity 83%
Rainfall 0.00 in
Snow Depth Not available.
7:09 AM 4:19 PM
Waxing Crescent, 22% visible
METAR KUES 041245Z 00000KT 10SM OVC095 M02/M04 A3018
Pressure 30.18 in
Visibility 10.0 miles
Clouds Overcast 9500 ft
Windchill 31 °F
Dew Point 26 °F
Humidity 83%
Rainfall 0.00 in
Snow Depth Not available.
7:09 AM 4:19 PM
Waxing Crescent, 22% visible
METAR KUES 041245Z 00000KT 10SM OVC095 M02/M04 A3018

10-Day Weather Forecast

Almanac

Astronomy

Dec. 04, 2016 Rise Set
Actual Time
Civil Twilight
Nautical Twilight
Astronomical Twilight
Moon
Length of Visible Light
Length of Day
Tomorrow will be .
, % of the Moon is Illuminated

Today's Extremes

State Highs State Lows

Community

WunderPhotos

Upload Photos

1,955,593 photos uploaded!

WunderBlog® & News

Nearby

Air Quality

  Air Quality AQ Index Pollutant
Not available.

Snow Depth

Station Depth Elevation

Earthquake Activity

City Distance Mag. Time & Date
Minimum magnitude displayed is 2.5.

Coastal Water Temperatures

Place Temperature

Stations

Nearby Weather Stations

Station Location Temp. Windchill Dew Point Humidity Wind Precip. Elev Updated Type
                   

Watches & Warnings

Winter Weather Advisory
Issued: 6:51 AM CST Dec. 4, 2016 – National Weather Service

... Winter Weather Advisory remains in effect until 6 PM CST this
evening...

A Winter Weather Advisory remains in effect until 6 PM CST this
evening.

* Timing... steady snow beginning later this morning... tapering
off late in the afternoon or early evening.

* Snow accumulations... 2 to 4 inches.

* Winds... south to southeast 5 to 15 mph.

* Impacts... reduced visibility and slippery spots on untreated
roads creating hazardous travel.

Precautionary/preparedness actions...

A Winter Weather Advisory for snow means that periods of snow
will cause primarily travel difficulties. Be prepared for snow
covered roads and limited visibilities... and use caution while
driving.


Kavinsky